Time;durP1;ratioP1;P1;durP2;ratioP2;P2;SDS_P1;SDS_P2;PMS_P1;PMS_P2;Temp;Humidity;BMP_temperature;BMP_pressure;BME280_temperature;BME280_humidity;BME280_pressure;Samples;Min_cycle;Max_cycle;Signal;HPM_P1;HPM_P2
2022/03/08 00:02:11;;;;;;;23.65;9.73;;;;;;;2.12;72.37;100782.56;1818909;78;21610;-60
2022/03/08 00:04:41;;;;;;;27.98;9.83;;;;;;;2.11;72.33;100787.34;1843209;78;21055;-59
2022/03/08 00:07:09;;;;;;;25.23;9.35;;;;;;;2.12;72.33;100780.84;1822073;76;21117;-57
2022/03/08 00:09:38;;;;;;;26.00;10.72;;;;;;;2.10;72.44;100783.89;1874783;76;21132;-60
2022/03/08 00:12:08;;;;;;;31.23;11.30;;;;;;;2.10;72.50;100779.11;1847644;76;21161;-58
2022/03/08 00:14:36;;;;;;;25.37;10.35;;;;;;;2.04;72.69;100774.80;1842274;77;21227;-58
2022/03/08 00:17:05;;;;;;;24.05;9.55;;;;;;;2.04;72.86;100767.45;1842507;78;21051;-56
2022/03/08 00:19:34;;;;;;;29.70;10.80;;;;;;;2.03;72.94;100770.91;1805655;78;21080;-61
2022/03/08 00:22:03;;;;;;;25.32;10.08;;;;;;;2.04;72.91;100766.16;1838254;78;21051;-57
2022/03/08 00:24:32;;;;;;;25.15;10.05;;;;;;;2.05;72.77;100774.39;1850362;77;21051;-59
2022/03/08 00:27:00;;;;;;;17.57;7.22;;;;;;;2.04;72.55;100766.16;1852126;77;21163;-61
2022/03/08 00:29:29;;;;;;;25.68;9.38;;;;;;;2.05;72.41;100771.34;1852040;77;21042;-59
2022/03/08 00:31:57;;;;;;;22.00;8.85;;;;;;;2.03;72.29;100774.80;1852164;77;21129;-61
2022/03/08 00:34:26;;;;;;;20.65;8.35;;;;;;;2.01;72.29;100772.64;1869740;76;21181;-60
2022/03/08 00:36:55;;;;;;;19.82;8.43;;;;;;;2.03;72.11;100768.30;1874539;76;21051;-59
2022/03/08 00:39:23;;;;;;;21.57;8.40;;;;;;;2.03;72.05;100770.91;1874819;76;21127;-59
2022/03/08 00:41:52;;;;;;;23.57;9.08;;;;;;;2.01;71.92;100773.95;1874600;76;21580;-59
2022/03/08 00:44:21;;;;;;;20.90;8.93;;;;;;;1.96;72.00;100772.67;1867443;76;21062;-60
2022/03/08 00:46:51;;;;;;;20.62;8.80;;;;;;;1.92;72.01;100771.82;1842994;78;21145;-61
2022/03/08 00:49:21;;;;;;;24.63;8.90;;;;;;;1.89;72.01;100773.12;1830529;78;21468;-61
2022/03/08 00:51:49;;;;;;;24.12;9.88;;;;;;;1.88;71.98;100762.32;1796412;80;21050;-61
2022/03/08 00:54:18;;;;;;;27.05;11.43;;;;;;;1.87;72.04;100772.70;1806047;78;21034;-62
2022/03/08 00:56:48;;;;;;;31.25;11.63;;;;;;;1.84;72.29;100776.59;1843068;77;21091;-60
2022/03/08 00:59:17;;;;;;;36.63;13.22;;;;;;;1.85;72.41;100784.83;1842701;78;21070;-61
2022/03/08 01:01:46;;;;;;;32.15;12.40;;;;;;;1.87;72.55;100779.20;1813017;79;21528;-60
2022/03/08 01:04:15;;;;;;;27.75;11.15;;;;;;;1.85;72.66;100784.39;1813036;79;21137;-60
2022/03/08 01:06:44;;;;;;;25.62;9.90;;;;;;;1.87;72.69;100776.59;1819756;78;21015;-61
2022/03/08 01:09:13;;;;;;;23.98;9.40;;;;;;;1.88;72.50;100783.09;1843373;78;21466;-61
2022/03/08 01:11:42;;;;;;;23.98;8.83;;;;;;;1.86;72.58;100776.16;1843120;78;21551;-61
2022/03/08 01:14:12;;;;;;;20.60;8.28;;;;;;;1.85;72.65;100778.34;1843189;78;21118;-61
2022/03/08 01:16:40;;;;;;;21.93;8.05;;;;;;;1.84;72.55;100767.06;1839812;78;21547;-60
2022/03/08 01:19:10;;;;;;;16.93;7.30;;;;;;;1.82;72.51;100763.61;1843247;78;21470;-60
2022/03/08 01:21:39;;;;;;;20.55;7.83;;;;;;;1.78;72.48;100756.70;1843158;78;21583;-60
2022/03/08 01:24:08;;;;;;;16.73;7.58;;;;;;;1.73;72.58;100754.55;1843301;78;21055;-61
2022/03/08 01:26:37;;;;;;;17.70;6.90;;;;;;;1.71;72.68;100749.36;1843285;78;21066;-60
2022/03/08 01:29:06;;;;;;;15.30;6.22;;;;;;;1.68;72.78;100752.42;1843374;78;21539;-60
2022/03/08 01:31:35;;;;;;;18.10;6.62;;;;;;;1.69;72.81;100755.44;1799521;78;21645;-60
2022/03/08 01:34:04;;;;;;;13.32;5.92;;;;;;;1.68;72.90;100753.72;1796393;80;21556;-60
2022/03/08 01:36:33;;;;;;;16.85;6.05;;;;;;;1.62;73.14;100757.61;1796372;80;21690;-60
2022/03/08 01:39:03;;;;;;;14.33;5.53;;;;;;;1.57;73.23;100761.52;1813872;78;21059;-60
2022/03/08 01:41:32;;;;;;;16.37;6.17;;;;;;;1.51;73.41;100762.81;1843208;78;21054;-59
2022/03/08 01:44:00;;;;;;;13.78;4.70;;;;;;;1.46;73.61;100765.43;1843129;78;21023;-59
2022/03/08 01:46:31;;;;;;;15.38;6.45;;;;;;;1.45;73.68;100768.87;1843089;77;21201;-59
2022/03/08 01:49:00;;;;;;;13.48;6.05;;;;;;;1.46;73.70;100774.52;1839816;78;21473;-59
2022/03/08 01:51:28;;;;;;;15.40;6.70;;;;;;;1.44;73.80;100771.06;1833888;77;21049;-59
2022/03/08 01:53:57;;;;;;;15.00;5.87;;;;;;;1.45;73.85;100776.66;1796343;80;21479;-60
2022/03/08 01:56:26;;;;;;;12.65;5.53;;;;;;;1.48;73.86;100783.16;1796561;80;21070;-60
2022/03/08 01:58:56;;;;;;;16.17;7.22;;;;;;;1.54;73.54;100784.44;1796437;80;21283;-60
2022/03/08 02:01:25;;;;;;;23.70;7.97;;;;;;;1.59;73.32;100786.19;1796298;80;21105;-60
2022/03/08 02:03:53;;;;;;;16.65;6.85;;;;;;;1.57;73.27;100782.29;1796734;78;21140;-60
2022/03/08 02:06:22;;;;;;;15.88;6.78;;;;;;;1.53;73.44;100789.22;1843179;78;21047;-60
2022/03/08 02:08:51;;;;;;;16.37;6.83;;;;;;;1.54;73.48;100784.44;1843336;78;21051;-60
2022/03/08 02:11:21;;;;;;;15.50;6.58;;;;;;;1.51;73.54;100784.46;1843158;78;21125;-60
2022/03/08 02:13:50;;;;;;;19.35;6.65;;;;;;;1.47;73.72;100784.01;1843177;78;21046;-60
2022/03/08 02:16:18;;;;;;;15.13;6.53;;;;;;;1.44;73.91;100786.63;1843099;78;21041;-60
2022/03/08 02:18:47;;;;;;;16.48;6.95;;;;;;;1.43;74.03;100782.29;1826258;78;21211;-60
2022/03/08 02:21:16;;;;;;;16.10;6.40;;;;;;;1.47;74.03;100791.80;1796417;80;21117;-60
2022/03/08 02:23:44;;;;;;;16.52;6.83;;;;;;;1.43;74.12;100797.86;1796451;80;21054;-60
2022/03/08 02:26:13;;;;;;;17.65;7.42;;;;;;;1.44;74.02;100802.20;1796339;80;21136;-60
2022/03/08 02:28:43;;;;;;;17.60;7.08;;;;;;;1.51;73.96;100806.93;1799461;78;21039;-59
2022/03/08 02:31:11;;;;;;;18.75;7.67;;;;;;;1.53;73.86;100807.38;1796260;80;21566;-60
2022/03/08 02:33:40;;;;;;;18.05;7.05;;;;;;;1.57;73.81;100811.25;1796434;80;21136;-61
2022/03/08 02:36:08;;;;;;;17.85;7.58;;;;;;;1.54;73.80;100807.79;1796311;80;21030;-61
2022/03/08 02:38:37;;;;;;;17.95;7.03;;;;;;;1.50;73.84;100811.27;1796556;80;21062;-60
2022/03/08 02:41:06;;;;;;;15.30;6.22;;;;;;;1.51;73.77;100814.72;1799343;78;21564;-60
2022/03/08 02:43:35;;;;;;;18.52;7.35;;;;;;;1.49;73.73;100811.26;1796407;80;21034;-59
2022/03/08 02:46:04;;;;;;;16.67;6.20;;;;;;;1.44;73.82;100813.88;1796308;80;21557;-59
2022/03/08 02:48:33;;;;;;;14.60;6.45;;;;;;;1.38;73.91;100812.55;1808105;78;21461;-59
2022/03/08 02:51:01;;;;;;;17.90;6.90;;;;;;;1.36;73.98;100814.29;1843088;78;21095;-59
2022/03/08 02:53:30;;;;;;;15.03;6.30;;;;;;;1.36;74.03;100816.88;1843278;78;21129;-60
2022/03/08 02:55:59;;;;;;;17.65;7.15;;;;;;;1.38;74.01;100819.05;1843116;78;21042;-60
2022/03/08 02:58:28;;;;;;;19.87;7.90;;;;;;;1.41;74.08;100822.95;1838137;77;21126;-60
2022/03/08 03:00:57;;;;;;;16.23;7.35;;;;;;;1.40;74.04;100823.80;1839847;78;21079;-60
2022/03/08 03:03:25;;;;;;;18.27;7.53;;;;;;;1.43;73.87;100819.91;1839921;78;21086;-60
2022/03/08 03:05:54;;;;;;;20.97;8.60;;;;;;;1.47;73.74;100819.48;1839833;78;21078;-60
2022/03/08 03:08:22;;;;;;;16.62;7.37;;;;;;;1.45;73.84;100816.02;1839923;78;21019;-60
2022/03/08 03:10:51;;;;;;;22.98;9.10;;;;;;;1.42;74.00;100827.28;1839866;78;21196;-60
2022/03/08 03:13:19;;;;;;;23.10;8.30;;;;;;;1.33;74.14;100817.77;1834276;78;21066;-60
2022/03/08 03:15:48;;;;;;;19.82;8.55;;;;;;;1.33;74.13;100815.61;1787396;80;21089;-60
2022/03/08 03:18:17;;;;;;;23.40;9.03;;;;;;;1.33;74.11;100814.31;1787506;80;21162;-60
2022/03/08 03:20:46;;;;;;;22.48;9.35;;;;;;;1.31;74.17;100810.83;1801537;78;21196;-61
2022/03/08 03:23:15;;;;;;;19.70;7.83;;;;;;;1.32;74.27;100812.56;1839764;78;21136;-60
2022/03/08 03:25:44;;;;;;;22.30;8.60;;;;;;;1.31;74.28;100812.12;1839905;78;21109;-59
2022/03/08 03:28:13;;;;;;;18.62;9.13;;;;;;;1.32;74.00;100816.45;1840170;78;21552;-59
2022/03/08 03:30:42;;;;;;;22.17;8.90;;;;;;;1.35;73.89;100819.06;1836217;78;21059;-60
2022/03/08 03:33:10;;;;;;;26.05;9.43;;;;;;;1.33;73.95;100816.91;1839949;78;21575;-59
2022/03/08 03:35:39;;;;;;;24.70;8.88;;;;;;;1.31;74.01;100812.12;1839838;78;21063;-60
2022/03/08 03:38:07;;;;;;;17.60;8.48;;;;;;;1.29;73.95;100820.34;1840012;78;21062;-60
2022/03/08 03:40:36;;;;;;;26.42;9.28;;;;;;;1.29;74.01;100819.04;1839891;78;21059;-60
2022/03/08 03:43:05;;;;;;;24.05;9.68;;;;;;;1.28;73.92;100825.97;1840179;78;21066;-59
2022/03/08 03:45:34;;;;;;;22.95;9.58;;;;;;;1.26;73.82;100828.14;1833663;78;21294;-59
2022/03/08 03:48:02;;;;;;;25.30;9.00;;;;;;;1.18;73.83;100828.55;1787413;80;21111;-61
2022/03/08 03:50:31;;;;;;;19.90;8.23;;;;;;;1.13;73.93;100830.72;1787476;80;21195;-59
2022/03/08 03:53:00;;;;;;;26.55;10.75;;;;;;;1.08;74.04;100832.42;1802955;78;21531;-59
2022/03/08 03:55:29;;;;;;;26.30;10.18;;;;;;;1.07;74.05;100828.53;1840137;78;21521;-59
2022/03/08 03:57:58;;;;;;;20.82;8.63;;;;;;;1.00;74.15;100826.38;1839968;78;21054;-59
2022/03/08 04:00:27;;;;;;;20.45;8.20;;;;;;;1.01;74.03;100830.69;1842821;78;21118;-59
2022/03/08 04:02:55;;;;;;;25.75;10.53;;;;;;;0.99;74.08;100836.30;1837280;78;21266;-59
2022/03/08 04:05:24;;;;;;;24.15;10.38;;;;;;;0.95;74.23;100836.73;1796400;80;21160;-58
2022/03/08 04:07:53;;;;;;;25.25;10.25;;;;;;;0.93;74.29;100842.78;1796502;80;21140;-58
2022/03/08 04:10:21;;;;;;;25.08;10.65;;;;;;;0.95;74.20;100847.54;1796378;80;21086;-58
2022/03/08 04:12:50;;;;;;;22.55;8.78;;;;;;;0.95;74.35;100850.98;1796370;80;21054;-60
2022/03/08 04:15:19;;;;;;;20.97;8.90;;;;;;;1.01;74.37;100855.76;1796409;80;21060;-60
2022/03/08 04:17:47;;;;;;;26.75;10.13;;;;;;;0.95;74.48;100851.43;1803547;78;21046;-61
2022/03/08 04:20:16;;;;;;;26.40;11.18;;;;;;;0.93;74.53;100849.27;1843146;78;21117;-62
2022/03/08 04:22:45;;;;;;;23.95;10.80;;;;;;;0.98;74.60;100852.74;1843169;78;21062;-60
2022/03/08 04:25:13;;;;;;;24.77;10.32;;;;;;;1.00;74.59;100860.50;1843215;78;21050;-60
2022/03/08 04:27:42;;;;;;;25.85;11.05;;;;;;;0.98;74.57;100850.15;1843044;78;21090;-60
2022/03/08 04:30:12;;;;;;;24.27;10.75;;;;;;;1.05;74.48;100852.30;1796760;78;21133;-60
2022/03/08 04:32:41;;;;;;;25.82;9.98;;;;;;;1.10;74.50;100853.19;1796415;79;21140;-60
2022/03/08 04:35:10;;;;;;;22.40;8.05;;;;;;;1.14;74.60;100856.20;1796366;80;21582;-60
2022/03/08 04:37:39;;;;;;;19.57;8.65;;;;;;;1.17;74.65;100854.07;1796336;80;21599;-60
2022/03/08 04:40:09;;;;;;;18.17;7.17;;;;;;;1.18;74.67;100853.19;1796424;80;21508;-61
2022/03/08 04:42:37;;;;;;;20.70;8.25;;;;;;;1.15;74.69;100854.92;1797429;78;21129;-60
2022/03/08 04:45:07;;;;;;;17.55;8.20;;;;;;;1.15;74.72;100861.41;1843170;78;21094;-60
2022/03/08 04:47:38;;;;;;;16.87;7.30;;;;;;;1.11;74.72;100855.78;1843350;78;21074;-60
2022/03/08 04:50:09;;;;;;;15.85;6.42;;;;;;;1.20;74.62;100854.94;1843424;78;21528;-60
2022/03/08 04:52:38;;;;;;;16.90;6.95;;;;;;;1.23;74.42;100860.55;1843268;78;21027;-61
2022/03/08 04:55:07;;;;;;;13.88;6.55;;;;;;;1.26;74.37;100858.83;1841968;78;21570;-60
2022/03/08 04:57:36;;;;;;;13.13;5.85;;;;;;;1.31;74.25;100858.41;1843187;78;21171;-61
2022/03/08 05:00:07;;;;;;;15.98;5.95;;;;;;;1.37;74.04;100857.98;1841857;78;21168;-61
2022/03/08 05:02:36;;;;;;;15.72;6.00;;;;;;;1.35;74.14;100861.43;1839880;78;21063;-60
2022/03/08 05:05:06;;;;;;;14.45;6.67;;;;;;;1.30;74.27;100865.74;1840035;78;21478;-61
2022/03/08 05:07:35;;;;;;;11.43;5.62;;;;;;;1.34;74.41;100867.91;1839846;78;21192;-60
2022/03/08 05:10:06;;;;;;;15.95;5.92;;;;;;;1.41;74.30;100866.20;1832053;78;21560;-60
2022/03/08 05:12:35;;;;;;;13.65;6.42;;;;;;;1.48;74.18;100872.69;1825938;78;21043;-60
2022/03/08 05:15:05;;;;;;;15.13;5.72;;;;;;;1.52;74.09;100878.30;1863039;77;21024;-61
2022/03/08 05:17:33;;;;;;;12.37;5.58;;;;;;;1.61;73.89;100876.14;1867273;77;21113;-60
2022/03/08 05:20:04;;;;;;;11.53;4.92;;;;;;;1.64;73.83;100882.65;1869932;76;21031;-62
2022/03/08 05:22:32;;;;;;;13.10;6.15;;;;;;;1.64;73.78;100871.37;1870539;77;21031;-60
2022/03/08 05:25:02;;;;;;;10.93;5.40;;;;;;;1.69;73.70;100870.95;1870494;76;21101;-60
2022/03/08 05:27:30;;;;;;;11.75;5.55;;;;;;;1.75;73.74;100869.63;1870139;76;21462;-59
2022/03/08 05:29:59;;;;;;;11.50;5.25;;;;;;;1.83;73.76;100867.91;1852052;77;21035;-59
2022/03/08 05:32:28;;;;;;;16.50;6.28;;;;;;;1.95;73.58;100868.77;1839533;78;21533;-58
2022/03/08 05:34:56;;;;;;;15.48;6.17;;;;;;;2.00;73.48;100867.03;1839998;78;21160;-61
2022/03/08 05:37:25;;;;;;;12.68;5.58;;;;;;;1.98;73.51;100870.06;1840035;78;21023;-61
2022/03/08 05:39:54;;;;;;;14.93;6.42;;;;;;;1.97;73.64;100867.87;1800702;78;21543;-61
2022/03/08 05:42:22;;;;;;;13.75;6.10;;;;;;;1.97;73.79;100870.48;1819505;78;21092;-57
2022/03/08 05:44:51;;;;;;;12.40;5.90;;;;;;;1.97;73.87;100876.97;1839816;78;21137;-58
2022/03/08 05:47:20;;;;;;;10.15;4.55;;;;;;;1.99;73.91;100883.47;1839921;78;21047;-57
2022/03/08 05:49:48;;;;;;;12.50;5.35;;;;;;;2.02;73.59;100884.77;1840007;78;21124;-57
2022/03/08 05:52:17;;;;;;;9.28;4.30;;;;;;;2.06;73.30;100882.59;1836312;78;21098;-57
2022/03/08 05:54:45;;;;;;;12.28;5.12;;;;;;;2.11;73.03;100886.05;1839893;78;21552;-57
2022/03/08 05:57:14;;;;;;;8.08;4.35;;;;;;;2.16;72.65;100889.52;1839889;78;21062;-58
2022/03/08 05:59:44;;;;;;;12.93;5.55;;;;;;;2.21;72.49;100899.44;1840010;78;21015;-57
2022/03/08 06:02:13;;;;;;;10.55;4.85;;;;;;;2.29;72.38;100906.80;1842893;78;21090;-59
2022/03/08 06:04:42;;;;;;;13.25;5.35;;;;;;;2.35;72.47;100907.66;1811306;78;21650;-58
2022/03/08 06:07:11;;;;;;;13.38;5.42;;;;;;;2.41;72.46;100912.83;1796395;80;21062;-57
2022/03/08 06:09:40;;;;;;;13.13;5.97;;;;;;;2.53;72.22;100918.00;1796280;80;21571;-57
2022/03/08 06:12:10;;;;;;;13.48;5.67;;;;;;;2.57;71.96;100913.22;1796407;80;21207;-58
2022/03/08 06:14:39;;;;;;;11.22;5.85;;;;;;;2.59;71.78;100910.17;1799572;78;21026;-62
2022/03/08 06:17:09;;;;;;;13.38;6.00;;;;;;;2.51;72.09;100919.30;1796362;79;21175;-61
2022/03/08 06:19:38;;;;;;;14.15;5.67;;;;;;;2.43;72.37;100917.59;1799269;78;21097;-63
2022/03/08 06:22:07;;;;;;;16.73;6.42;;;;;;;2.32;72.64;100918.91;1821785;78;21102;-61
2022/03/08 06:24:36;;;;;;;13.30;6.10;;;;;;;2.33;72.58;100927.59;1803612;79;21476;-62
2022/03/08 06:27:05;;;;;;;11.08;5.53;;;;;;;2.36;72.73;100918.47;1828661;78;21116;-61
2022/03/08 06:29:33;;;;;;;13.40;6.50;;;;;;;2.42;72.61;100923.67;1843099;78;21121;-62
2022/03/08 06:32:02;;;;;;;15.63;5.83;;;;;;;2.50;72.51;100920.60;1842769;78;21050;-61
2022/03/08 06:34:31;;;;;;;15.98;7.15;;;;;;;2.62;72.27;100918.38;1843056;78;21067;-61
2022/03/08 06:37:00;;;;;;;12.88;5.28;;;;;;;2.66;72.14;100919.69;1842976;78;21148;-61
2022/03/08 06:39:30;;;;;;;8.93;4.37;;;;;;;2.70;71.79;100920.54;1819763;78;21500;-61
2022/03/08 06:41:58;;;;;;;11.80;5.30;;;;;;;2.71;71.35;100922.25;1811210;79;21509;-61
2022/03/08 06:44:27;;;;;;;12.18;5.08;;;;;;;2.74;71.15;100918.80;1811302;79;21086;-61
2022/03/08 06:46:55;;;;;;;8.30;3.95;;;;;;;2.82;70.90;100917.02;1811339;79;21070;-60
2022/03/08 06:49:24;;;;;;;9.63;5.05;;;;;;;2.90;70.66;100919.16;1811266;79;21062;-60
2022/03/08 06:51:53;;;;;;;13.55;5.67;;;;;;;2.99;70.44;100920.41;1811184;79;21537;-60
2022/03/08 06:54:21;;;;;;;8.10;4.42;;;;;;;3.07;70.36;100923.83;1811246;79;21067;-61
2022/03/08 06:56:50;;;;;;;8.50;4.90;;;;;;;3.11;70.33;100919.48;1811454;79;21075;-61
2022/03/08 06:59:18;;;;;;;11.15;4.85;;;;;;;3.15;70.05;100915.13;1811336;79;21039;-61
2022/03/08 07:01:47;;;;;;;11.63;4.97;;;;;;;3.21;69.77;100921.58;1811332;79;21172;-61
2022/03/08 07:04:16;;;;;;;12.40;5.60;;;;;;;3.27;69.66;100926.77;1811256;79;21557;-61
2022/03/08 07:06:45;;;;;;;12.43;5.85;;;;;;;3.18;70.07;100935.94;1811565;79;21144;-61
2022/03/08 07:09:13;;;;;;;14.50;5.12;;;;;;;3.13;70.23;100940.28;1811351;79;21165;-62
2022/03/08 07:11:42;;;;;;;11.90;5.33;;;;;;;3.06;69.89;100937.73;1811414;79;21034;-62
2022/03/08 07:14:15;;;;;;;13.70;6.37;;;;;;;3.16;69.79;100938.53;1811381;79;21226;-61
2022/03/08 07:16:45;;;;;;;11.25;5.35;;;;;;;3.32;69.71;100938.02;1811408;79;21078;-61
2022/03/08 07:19:14;;;;;;;12.40;5.30;;;;;;;3.45;69.61;100933.16;1811364;79;21083;-62
2022/03/08 07:21:45;;;;;;;12.85;5.70;;;;;;;3.52;69.38;100931.81;1811522;79;21505;-61
2022/03/08 07:24:15;;;;;;;11.60;5.37;;;;;;;3.61;69.26;100933.90;1811316;79;21058;-61
2022/03/08 07:26:44;;;;;;;11.78;6.17;;;;;;;3.64;69.31;100936.94;1811360;79;21129;-63
2022/03/08 07:29:13;;;;;;;15.65;7.05;;;;;;;3.61;69.48;100935.65;1811252;79;21035;-64
2022/03/08 07:31:42;;;;;;;17.52;7.53;;;;;;;3.63;69.45;100939.10;1811353;79;21027;-63
2022/03/08 07:34:10;;;;;;;16.82;6.90;;;;;;;3.63;69.32;100936.50;1811582;79;21074;-63
2022/03/08 07:36:41;;;;;;;13.18;6.17;;;;;;;3.64;69.20;100938.23;1811330;79;21119;-63
2022/03/08 07:39:09;;;;;;;13.93;6.72;;;;;;;3.67;69.30;100939.50;1811452;79;21473;-63
2022/03/08 07:41:38;;;;;;;13.25;6.60;;;;;;;3.71;69.23;100934.72;1811265;79;21589;-63
2022/03/08 07:44:07;;;;;;;13.68;6.53;;;;;;;3.79;69.09;100943.33;1811267;79;21126;-63
2022/03/08 07:46:39;;;;;;;12.03;5.53;;;;;;;3.93;68.98;100943.64;1811324;79;21509;-63
2022/03/08 07:49:27;;;;;;;15.03;6.87;;;;;;;4.03;68.85;100944.00;1884516;75;21198;-63
2022/03/08 07:51:55;;;;;;;17.90;7.35;;;;;;;4.00;68.60;100946.21;1884570;76;21040;-64
2022/03/08 07:54:27;;;;;;;16.87;7.60;;;;;;;4.00;68.70;100947.92;1884530;76;21016;-63
2022/03/08 07:56:56;;;;;;;15.28;7.42;;;;;;;4.04;68.71;100952.27;1884630;76;21133;-64
2022/03/08 07:59:26;;;;;;;16.50;7.17;;;;;;;4.08;68.74;100954.37;1884641;76;21107;-64
2022/03/08 08:01:54;;;;;;;15.48;7.37;;;;;;;4.15;68.70;100950.42;1884778;76;21032;-64
2022/03/08 08:04:23;;;;;;;11.33;6.28;;;;;;;4.21;68.61;100950.34;1884611;76;21035;-64
2022/03/08 08:06:52;;;;;;;8.73;4.80;;;;;;;4.19;68.88;100944.29;1884610;76;21039;-64
2022/03/08 08:09:21;;;;;;;8.48;4.95;;;;;;;4.13;68.92;100944.36;1884635;76;21059;-63
2022/03/08 08:11:50;;;;;;;9.10;4.60;;;;;;;4.06;68.88;100947.89;1884684;76;21055;-63
2022/03/08 08:14:19;;;;;;;12.88;5.37;;;;;;;4.00;68.79;100937.50;1884809;76;21518;-64
2022/03/08 08:16:48;;;;;;;13.03;5.53;;;;;;;3.99;68.79;100942.31;1884640;76;21572;-64
2022/03/08 08:19:17;;;;;;;10.30;4.95;;;;;;;4.00;68.76;100951.83;1884561;76;21542;-64
2022/03/08 08:21:45;;;;;;;16.73;5.80;;;;;;;4.05;68.83;100955.27;1884829;76;21055;-64
2022/03/08 08:24:14;;;;;;;11.55;5.50;;;;;;;4.10;68.93;100960.02;1884700;76;21048;-64
2022/03/08 08:26:42;;;;;;;10.13;4.62;;;;;;;4.21;69.10;100956.86;1884740;76;21044;-64
2022/03/08 08:29:11;;;;;;;11.38;5.87;;;;;;;4.42;69.06;100958.84;1884762;76;21099;-64
2022/03/08 08:31:40;;;;;;;15.50;5.28;;;;;;;4.42;68.96;100949.70;1884608;76;21114;-64
2022/03/08 08:34:08;;;;;;;10.68;5.20;;;;;;;4.46;69.00;100948.79;1884708;76;21048;-64
2022/03/08 08:36:37;;;;;;;12.37;5.55;;;;;;;4.57;68.92;100949.98;1884678;76;21130;-64
2022/03/08 08:39:06;;;;;;;15.85;6.85;;;;;;;4.65;68.70;100952.09;1884548;76;21432;-64
2022/03/08 08:41:35;;;;;;;14.75;6.37;;;;;;;4.73;68.54;100954.60;1884637;76;21138;-63
2022/03/08 08:44:04;;;;;;;8.78;4.97;;;;;;;4.58;68.65;100953.89;1884830;76;21055;-64
2022/03/08 08:46:32;;;;;;;13.08;6.08;;;;;;;4.51;68.79;100955.28;1884428;76;21137;-64
2022/03/08 08:49:01;;;;;;;14.78;7.05;;;;;;;4.47;68.77;100959.66;1880650;76;21100;-63
2022/03/08 08:51:30;;;;;;;12.60;6.30;;;;;;;4.35;68.81;100960.66;1877882;76;21055;-65
2022/03/08 08:54:00;;;;;;;10.18;5.17;;;;;;;4.29;69.13;100963.75;1878104;76;21561;-65
2022/03/08 08:56:29;;;;;;;17.80;8.25;;;;;;;4.25;68.88;100953.34;1882037;75;21140;-63
2022/03/08 08:58:58;;;;;;;9.43;5.72;;;;;;;4.21;69.29;100963.83;1876406;76;21044;-60
2022/03/08 09:01:26;;;;;;;13.15;6.55;;;;;;;4.34;69.33;100952.84;1877840;76;21017;-60
2022/03/08 09:03:55;;;;;;;11.30;5.90;;;;;;;4.52;68.84;100950.47;1858120;76;21051;-60
2022/03/08 09:06:24;;;;;;;10.13;5.25;;;;;;;4.68;68.48;100952.48;1856551;77;21457;-65
2022/03/08 09:08:54;;;;;;;8.50;4.85;;;;;;;4.81;68.12;100956.25;1856302;77;21509;-64
2022/03/08 09:11:23;;;;;;;17.25;8.10;;;;;;;4.95;67.57;100956.06;1856248;77;21031;-64
2022/03/08 09:13:52;;;;;;;11.30;5.95;;;;;;;5.10;67.05;100956.76;1856380;77;21579;-66
2022/03/08 09:16:21;;;;;;;9.28;5.15;;;;;;;5.31;66.58;100951.68;1846594;78;21472;-61
2022/03/08 09:18:50;;;;;;;9.75;5.75;;;;;;;5.67;66.10;100952.05;1846686;78;21135;-62
2022/03/08 09:21:19;;;;;;;13.45;5.95;;;;;;;6.23;65.22;100949.41;1846599;78;21029;-64
2022/03/08 09:23:47;;;;;;;8.25;5.55;;;;;;;7.20;63.86;100950.14;1846604;78;21468;-64
2022/03/08 09:26:37;;;;;;;10.03;5.10;;;;;;;8.08;62.55;100947.18;1846557;78;21052;-63
2022/03/08 09:29:05;;;;;;;9.28;4.78;;;;;;;8.48;61.26;100951.85;1884721;76;21111;-60
2022/03/08 09:31:34;;;;;;;10.00;4.75;;;;;;;8.78;60.13;100954.53;1884762;76;21497;-60
2022/03/08 09:34:03;;;;;;;10.85;6.08;;;;;;;8.53;60.01;100951.75;1884691;76;21104;-58
2022/03/08 09:36:31;;;;;;;9.08;5.17;;;;;;;8.74;60.23;100948.51;1884657;76;21046;-59
2022/03/08 09:39:00;;;;;;;9.35;5.25;;;;;;;9.11;59.66;100939.59;1884698;76;21505;-62
2022/03/08 09:41:29;;;;;;;9.00;5.55;;;;;;;9.57;58.92;100942.13;1882708;76;21069;-60
2022/03/08 09:44:00;;;;;;;8.60;4.65;;;;;;;9.95;57.90;100946.58;1878338;76;21523;-64
2022/03/08 09:46:29;;;;;;;8.40;4.15;;;;;;;10.57;57.57;100941.89;1877518;75;21010;-62
2022/03/08 09:48:57;;;;;;;8.25;4.85;;;;;;;10.36;57.15;100946.97;1877530;76;21052;-62
2022/03/08 09:51:26;;;;;;;8.35;5.12;;;;;;;9.91;56.99;100950.23;1878263;76;21119;-62
2022/03/08 09:53:55;;;;;;;8.43;5.10;;;;;;;9.55;57.33;100958.84;1878218;76;20990;-62
2022/03/08 09:56:24;;;;;;;7.53;4.97;;;;;;;9.17;57.58;100963.05;1878211;76;21456;-63
2022/03/08 09:58:53;;;;;;;8.15;5.65;;;;;;;8.98;58.27;100967.10;1878209;76;21159;-62
2022/03/08 10:01:21;;;;;;;10.90;5.08;;;;;;;9.10;58.33;100965.45;1878188;76;21188;-62
2022/03/08 10:03:51;;;;;;;8.93;5.30;;;;;;;8.86;58.24;100955.20;1878180;76;21045;-63
2022/03/08 10:06:20;;;;;;;6.58;4.40;;;;;;;8.78;58.36;100959.36;1878316;76;21018;-62
2022/03/08 10:08:49;;;;;;;8.80;4.60;;;;;;;9.15;57.82;100954.78;1878473;76;21001;-62
2022/03/08 10:11:19;;;;;;;8.05;4.85;;;;;;;9.36;57.22;100954.15;1878214;76;21496;-58
2022/03/08 10:13:50;;;;;;;8.80;4.85;;;;;;;9.15;56.93;100959.61;1878282;76;21061;-59
2022/03/08 10:16:41;;;;;;;12.98;6.90;;;;;;;9.11;57.14;100966.30;1878196;76;21096;-59
2022/03/08 10:18:57;;;;;;;11.22;6.17;;;;;;;9.64;56.66;100967.28;1875296;75;21551;-62
2022/03/08 10:21:29;;;;;;;9.58;5.28;;;;;;;9.89;56.37;100961.26;1878062;76;21131;-62
2022/03/08 10:24:01;;;;;;;5.55;3.40;;;;;;;9.59;55.81;100966.59;1878194;76;21555;-61
2022/03/08 10:26:32;;;;;;;6.30;4.40;;;;;;;9.23;55.67;100964.16;1877368;74;21092;-61
2022/03/08 10:29:03;;;;;;;8.18;4.55;;;;;;;8.93;55.60;100959.80;1866785;76;21051;-61
2022/03/08 10:31:32;;;;;;;9.03;5.47;;;;;;;9.27;55.92;100961.84;1862703;77;21492;-61
2022/03/08 10:34:06;;;;;;;7.75;5.25;;;;;;;9.98;55.05;100960.11;1862756;77;20994;-60
2022/03/08 10:36:36;;;;;;;7.22;4.15;;;;;;;10.00;54.79;100969.66;1862830;77;21480;-61
2022/03/08 10:39:11;;;;;;;13.65;8.00;;;;;;;10.71;54.10;100968.56;1862664;77;21081;-61
2022/03/08 10:41:48;;;;;;;8.60;5.58;;;;;;;11.30;52.97;100961.13;1862702;77;21053;-61
2022/03/08 10:44:34;;;;;;;6.87;4.50;;;;;;;12.02;51.51;100964.88;1862766;76;21105;-60
2022/03/08 10:47:09;;;;;;;7.17;4.62;;;;;;;12.99;50.07;100962.48;1862829;77;21015;-61
2022/03/08 10:49:52;;;;;;;6.25;4.55;;;;;;;13.34;49.36;100956.91;1862634;77;21098;-61
2022/03/08 10:52:36;;;;;;;5.62;4.00;;;;;;;13.59;47.17;100958.37;1862870;77;21112;-60
2022/03/08 10:55:17;;;;;;;8.08;4.72;;;;;;;13.69;44.55;100954.36;1862712;77;21485;-61
2022/03/08 10:57:53;;;;;;;6.42;4.22;;;;;;;13.10;46.02;100956.23;1862670;77;21058;-61
2022/03/08 11:00:24;;;;;;;6.97;4.80;;;;;;;13.07;46.92;100959.85;1862756;77;21047;-62
2022/03/08 11:03:02;;;;;;;7.28;4.40;;;;;;;12.23;46.93;100960.49;1862746;77;21004;-65
2022/03/08 11:05:42;;;;;;;7.83;4.37;;;;;;;11.40;48.02;100965.14;1862701;77;21097;-59
2022/03/08 11:08:12;;;;;;;8.03;4.30;;;;;;;10.71;48.93;100973.83;1862671;77;21018;-63
2022/03/08 11:10:42;;;;;;;10.75;4.17;;;;;;;10.74;49.31;100967.61;1862211;76;21027;-61
2022/03/08 11:13:12;;;;;;;6.72;3.95;;;;;;;11.28;49.09;100962.50;1862613;77;21003;-61
2022/03/08 11:15:43;;;;;;;6.22;3.37;;;;;;;11.30;48.50;100967.72;1862670;77;21549;-61
2022/03/08 11:18:13;;;;;;;5.30;3.47;;;;;;;11.03;48.73;100974.89;1862638;76;21009;-61
2022/03/08 11:20:44;;;;;;;7.50;3.95;;;;;;;10.51;48.96;100975.00;1862601;77;20991;-61
2022/03/08 11:23:15;;;;;;;15.98;7.50;;;;;;;10.01;49.35;100974.45;1862762;77;21015;-60
2022/03/08 11:25:46;;;;;;;6.47;4.08;;;;;;;9.52;49.90;100980.83;1862389;76;21079;-60
2022/03/08 11:28:15;;;;;;;6.05;3.40;;;;;;;9.11;50.18;100984.69;1866220;76;22763;-60
2022/03/08 11:30:49;;;;;;;7.28;4.10;;;;;;;8.78;50.78;100986.04;1890108;76;21115;-60
2022/03/08 11:33:45;;;;;;;6.10;3.45;;;;;;;8.53;50.97;100991.11;1889131;74;21102;-60
2022/03/08 11:36:29;;;;;;;7.10;3.75;;;;;;;8.19;50.47;100990.19;1890083;76;21013;-60
2022/03/08 11:39:20;;;;;;;6.10;4.05;;;;;;;7.90;51.44;100998.31;1890015;75;21514;-60